Kezdőlap
METAR-TAF:

METAR-TAF

Repülőterek :

Aktobe, Kazahsztán

földrajzi szélesség: 50-17N, földrajzi hosszúság: 057-09E, magasság: 227 m

Jelenlegi meteorológiai megfigyelések

A jelentés 30 perccel ezelõtt készült, 13:30 UTC
Kelet-északkeleti szél 8 kt
Hőmérséklet 17°C
Páratartalom 29%
Légköri nyomás 1029 hPa
Látótávolság 10 km, vagy több
felhőtlen 1500 m magasságban, és nincs gomolyfelhõ

METAR: UATT 011330Z 06004MPS CAVOK 17/M01 Q1029 R31/70D NOSIG RMK QFE751/1002

Idő: 19:00 (14:00 UTC)

Előrejelzés

A jelentés 2 órával és 59 perccel ezelõtt készült, 11:01 UTC
Az előrejelzés 01-én 12 óra UTC és 02-én 12 óra UTC között érvényes
Keleti szél 6 kt
Látótávolság 10 km, vagy több
Szórványos felhőzet 3300 lábon
01-én 12 óra UTC és 01-én 15 óra UTC között ideiglenes
Keleti szél 16 kt

TAF: UATT 011101Z 0112/0212 08003MPS 9999 SCT033 TX18/0212Z TN03/0202Z TEMPO 0112/0115 08008MPS

Meteorológiai megfigyelések és előrejelzések több, mint 4000 repülőtéren (METAR és TAF jelentéseket).

A térképen piros és sárga pontok jelzik az elérhető meteorológiai állomásokat.

Mozgassa az egeret a pont fölött, hogy megjelenjen az állomás neve.

Azután kattintson az időjárási megfigyelések és előrejelzések megtekintéséhez.

A térkép megváltoztatása: kattintson a fekete keresztel jelölt zöld gombra ráközelítéshez, a vonallal jelölt zöld gombra távolításhoz, vagy a zöld nyilakra a szomszédos térképek eléréséhez.


METAR-TAF: